Skip Navigation LinksHome page > Weather > Current weather Skip Navigation Links

Current Weather

Jakutsk, Russia

For information only: do not use for flight planning or navigation.
Latest weather
Observation time Saturday, April 19, 2014 8:00 AM JST
Local time Saturday, April 19, 2014 8:15 AM JST
Flight conditions Visual Meteorological Conditions
Winds
Wind direction East-Northeast (70°)
Wind speed 4 mph
Visibility 6.2 mi.
Sky condition
Ceiling unlimited
Sky clear
Temperature 27°F
Dewpoint 14°F
Altimeter 30.09 in.Hg
Precipitation
QF 8:35 PM
Derived measurements
Relative humidity 58%
Wind chill 21°F
Density altitude -2362 ft.
Remarks
Ceiling and visibility OK.
No significant changes expected in the next two hours.
METAR UEEE 182300Z 07002MPS CAVOK M03/M10 Q1019 NOSIG RMK QFE755 2309//60

Settings

Location code

InnerDrive.Weather 4.0.4869.0 Release CLR 4.0.30319.18449
Copyright ©2013 Inner Drive Technology. All rights reserved. Portions Copyright ©1986-2013 David Braverman.

Find weather

Site navigation


Skip Navigation Links

Place info

Page info

PayPal - The safer, easier way to pay online!

Return home.

Copyright ©2014 Inner Drive Technology. Purveyors of fine, hand-crafted computer software. Page printed 2014-04-18T23:15:17 UTC.